8TL YMAY-YSWH

Flight info

Callsign 8TL
Flight time N/A
Altitude 8000
Route MAKIV
Aircraft C208/L-SDFGR/C

Departure

Time 2026-05-08 02:26
Airport Albury Airport (YMAY)

Arrival

Time N/A
Airport Swan Hill Airport (YSWH)
Time Latitude Longitude Altitude Speed Heading
2026-05-08 02:20 -36.07285 146.95149 545 ft 0 kts 271°
2026-05-08 02:22 -36.07284 146.95146 542 ft 2 kts 316°
2026-05-08 02:22 -36.07240 146.95155 543 ft 9 kts 358°
2026-05-08 02:22 -36.07164 146.95148 544 ft 15 kts
2026-05-08 02:22 -36.07053 146.95149 545 ft 16 kts
2026-05-08 02:23 -36.06927 146.95156 546 ft 15 kts
2026-05-08 02:23 -36.06873 146.95205 544 ft 10 kts 81°
2026-05-08 02:23 -36.06863 146.95292 542 ft 14 kts 80°
2026-05-08 02:23 -36.06838 146.95471 540 ft 24 kts 83°
2026-05-08 02:24 -36.06822 146.95640 539 ft 15 kts 79°
2026-05-08 02:24 -36.06810 146.95743 539 ft 10 kts 79°
2026-05-08 02:24 -36.06795 146.95836 539 ft 16 kts 78°
2026-05-08 02:24 -36.06774 146.95998 539 ft 19 kts 83°
2026-05-08 02:25 -36.06724 146.96093 538 ft 11 kts 358°
2026-05-08 02:25 -36.06667 146.96083 539 ft 8 kts 352°
2026-05-08 02:25 -36.06657 146.96063 540 ft 2 kts 261°
2026-05-08 02:25 -36.06677 146.95908 543 ft 44 kts 261°
2026-05-08 02:26 -36.06737 146.95356 659 ft 74 kts 262°
2026-05-08 02:26 -36.06821 146.94710 985 ft 79 kts 254°
2026-05-08 02:26 -36.06952 146.94067 1357 ft 77 kts 253°
2026-05-08 02:26 -36.07098 146.93362 1632 ft 89 kts 253°
2026-05-08 02:27 -36.07257 146.92590 1935 ft 94 kts 252°
2026-05-08 02:27 -36.07407 146.91777 2255 ft 99 kts 254°
2026-05-08 02:27 -36.07488 146.90930 2563 ft 104 kts 276°
2026-05-08 02:27 -36.06968 146.90234 2879 ft 118 kts 314°
2026-05-08 02:28 -36.06309 146.89635 3185 ft 122 kts 311°
2026-05-08 02:28 -36.05650 146.89021 3483 ft 116 kts 310°
2026-05-08 02:28 -36.04983 146.88409 3785 ft 121 kts 311°
2026-05-08 02:28 -36.04289 146.87804 4086 ft 123 kts 312°
2026-05-08 02:29 -36.03734 146.87098 4388 ft 105 kts 279°
2026-05-08 02:29 -36.03559 146.86268 4699 ft 100 kts 267°
2026-05-08 02:29 -36.03365 146.85418 5014 ft 105 kts 270°
2026-05-08 02:29 -36.03232 146.84833 5217 ft 109 kts 270°
2026-05-08 02:30 -36.02947 146.83617 5612 ft 112 kts 270°
2026-05-08 02:30 -36.02718 146.82691 5924 ft 113 kts 271°
2026-05-08 02:30 -36.02497 146.81771 6219 ft 110 kts 269°
2026-05-08 02:30 -36.02349 146.81154 6437 ft 111 kts 270°
2026-05-08 02:31 -36.02129 146.80254 6732 ft 111 kts 270°
2026-05-08 02:31 -36.01903 146.79334 7014 ft 112 kts 271°
2026-05-08 02:31 -36.01678 146.78431 7304 ft 109 kts 270°
2026-05-08 02:31 -36.01461 146.77535 7594 ft 109 kts 270°
2026-05-08 02:32 -36.01242 146.76636 7887 ft 109 kts 270°
2026-05-08 02:32 -36.01021 146.75692 8005 ft 124 kts 271°
2026-05-08 02:32 -36.00756 146.74597 8013 ft 141 kts 274°
2026-05-08 02:32 -36.00458 146.73406 8016 ft 151 kts 275°
2026-05-08 02:33 -36.00143 146.72139 8016 ft 157 kts 275°
2026-05-08 02:33 -35.99820 146.70833 8015 ft 160 kts 275°
2026-05-08 02:33 -35.99493 146.69507 8017 ft 162 kts 275°
2026-05-08 02:33 -35.99164 146.68170 8015 ft 162 kts 275°
2026-05-08 02:34 -35.98836 146.66834 8013 ft 163 kts 275°
2026-05-08 02:34 -35.98505 146.65489 8013 ft 164 kts 275°
2026-05-08 02:34 -35.98173 146.64142 8017 ft 164 kts 275°
2026-05-08 02:34 -35.97845 146.62809 8017 ft 164 kts 275°
2026-05-08 02:35 -35.97513 146.61458 8016 ft 164 kts 275°
2026-05-08 02:35 -35.97180 146.60109 8013 ft 164 kts 275°
2026-05-08 02:35 -35.96847 146.58758 8012 ft 164 kts 275°
2026-05-08 02:35 -35.96515 146.57407 8012 ft 164 kts 275°
2026-05-08 02:36 -35.96180 146.56055 8012 ft 164 kts 275°
2026-05-08 02:36 -35.95848 146.54710 8012 ft 164 kts 275°
2026-05-08 02:36 -35.95517 146.53365 8016 ft 164 kts 275°
2026-05-08 02:36 -35.95187 146.52032 8016 ft 165 kts 275°
2026-05-08 02:37 -35.94853 146.50681 8012 ft 165 kts 275°
2026-05-08 02:37 -35.94518 146.49329 8013 ft 164 kts 275°
2026-05-08 02:37 -35.94184 146.47977 8016 ft 165 kts 275°
2026-05-08 02:37 -35.93849 146.46625 8013 ft 164 kts 275°
2026-05-08 02:38 -35.93514 146.45273 8014 ft 164 kts 275°
2026-05-08 02:38 -35.93183 146.43942 8019 ft 164 kts 275°
2026-05-08 02:38 -35.92861 146.42684 7993 ft 135 kts 274°
2026-05-08 02:38 -35.92694 146.42045 7989 ft 115 kts 271°
2026-05-08 02:39 -35.92479 146.41107 8026 ft 122 kts 270°
2026-05-08 02:39 -35.92224 146.40019 8025 ft 140 kts 274°
2026-05-08 02:39 -35.91924 146.38820 8025 ft 151 kts 275°
2026-05-08 02:39 -35.91603 146.37550 8017 ft 157 kts 275°
2026-05-08 02:40 -35.91275 146.36245 8020 ft 160 kts 275°
2026-05-08 02:40 -35.90945 146.34925 8021 ft 162 kts 275°
2026-05-08 02:40 -35.90617 146.33610 8023 ft 162 kts 275°
2026-05-08 02:40 -35.90283 146.32271 8022 ft 163 kts 275°
2026-05-08 02:41 -35.89949 146.30927 8012 ft 163 kts 276°
2026-05-08 02:41 -35.89618 146.29601 8013 ft 163 kts 276°
2026-05-08 02:41 -35.89282 146.28258 8016 ft 163 kts 276°
2026-05-08 02:41 -35.88947 146.26914 8012 ft 163 kts 276°
2026-05-08 02:42 -35.88613 146.25575 8011 ft 164 kts 276°
2026-05-08 02:42 -35.88277 146.24231 8011 ft 164 kts 276°
2026-05-08 02:42 -35.87946 146.22905 8013 ft 164 kts 276°
2026-05-08 02:42 -35.87609 146.21561 8012 ft 164 kts 276°
2026-05-08 02:43 -35.87273 146.20217 8014 ft 164 kts 276°
2026-05-08 02:43 -35.86938 146.18876 8017 ft 164 kts 276°
2026-05-08 02:43 -35.86605 146.17550 8012 ft 164 kts 276°
2026-05-08 02:43 -35.86269 146.16205 8012 ft 164 kts 276°
2026-05-08 02:44 -35.85932 146.14862 8020 ft 164 kts 276°
2026-05-08 02:44 -35.85595 146.13520 8016 ft 164 kts 276°
2026-05-08 02:44 -35.85257 146.12174 8016 ft 164 kts 276°
2026-05-08 02:44 -35.84920 146.10831 8015 ft 164 kts 276°
2026-05-08 02:45 -35.84582 146.09488 8019 ft 164 kts 276°
2026-05-08 02:45 -35.84244 146.08144 8017 ft 164 kts 276°
2026-05-08 02:45 -35.83910 146.06815 8020 ft 164 kts 276°
2026-05-08 02:45 -35.83572 146.05470 8017 ft 164 kts 276°
2026-05-08 02:46 -35.83232 146.04123 8015 ft 164 kts 276°
2026-05-08 02:46 -35.82893 146.02776 8017 ft 164 kts 276°
2026-05-08 02:46 -35.82554 146.01429 8019 ft 164 kts 276°
2026-05-08 02:46 -35.82212 146.00076 8016 ft 165 kts 276°
2026-05-08 02:47 -35.81876 145.98747 8022 ft 164 kts 276°
2026-05-08 02:47 -35.81536 145.97398 8022 ft 165 kts 276°
2026-05-08 02:47 -35.81196 145.96049 8022 ft 165 kts 276°
2026-05-08 02:47 -35.80855 145.94698 8024 ft 166 kts 276°
2026-05-08 02:48 -35.80512 145.93345 8022 ft 165 kts 276°
2026-05-08 02:48 -35.80170 145.91992 8022 ft 165 kts 276°
2026-05-08 02:48 -35.79826 145.90636 8023 ft 165 kts 276°
2026-05-08 02:48 -35.79484 145.89283 8023 ft 166 kts 276°
2026-05-08 02:49 -35.79140 145.87926 8028 ft 166 kts 276°
2026-05-08 02:49 -35.78800 145.86586 8028 ft 166 kts 276°
2026-05-08 02:49 -35.78456 145.85229 8028 ft 166 kts 276°
2026-05-08 02:49 -35.78112 145.83877 8027 ft 165 kts 276°
2026-05-08 02:50 -35.77769 145.82523 8029 ft 165 kts 276°
2026-05-08 02:50 -35.77426 145.81176 8028 ft 165 kts 276°
2026-05-08 02:50 -35.77084 145.79833 8028 ft 164 kts 276°
2026-05-08 02:50 -35.76742 145.78487 8028 ft 164 kts 276°
2026-05-08 02:51 -35.76405 145.77161 8025 ft 164 kts 276°
2026-05-08 02:51 -35.76061 145.75811 8025 ft 165 kts 276°
2026-05-08 02:51 -35.75715 145.74455 8026 ft 166 kts 277°
2026-05-08 02:51 -35.75371 145.73102 8026 ft 166 kts 277°
2026-05-08 02:52 -35.75024 145.71742 8027 ft 166 kts 277°
2026-05-08 02:52 -35.74682 145.70402 8027 ft 166 kts 277°
2026-05-08 02:52 -35.74336 145.69043 8026 ft 166 kts 277°
2026-05-08 02:52 -35.73987 145.67680 8032 ft 166 kts 277°
2026-05-08 02:53 -35.73640 145.66320 8036 ft 166 kts 277°
2026-05-08 02:53 -35.73292 145.64959 8036 ft 166 kts 277°
2026-05-08 02:53 -35.72948 145.63617 8036 ft 166 kts 277°
2026-05-08 02:53 -35.72600 145.62258 8036 ft 166 kts 277°
2026-05-08 02:54 -35.72253 145.60901 8033 ft 166 kts 277°
2026-05-08 02:54 -35.71904 145.59540 8033 ft 166 kts 277°
2026-05-08 02:54 -35.71556 145.58181 8032 ft 166 kts 277°
2026-05-08 02:54 -35.71207 145.56824 8038 ft 166 kts 277°
2026-05-08 02:55 -35.70859 145.55464 8036 ft 167 kts 277°
2026-05-08 02:55 -35.70164 145.52758 8036 ft 167 kts 277°
2026-05-08 02:55 -35.69815 145.51399 8034 ft 167 kts 277°
2026-05-08 02:56 -35.69464 145.50034 8038 ft 167 kts 277°
2026-05-08 02:56 -35.69112 145.48664 8039 ft 168 kts 277°
2026-05-08 02:56 -35.68758 145.47293 8039 ft 168 kts 277°
2026-05-08 02:56 -35.68406 145.45924 8044 ft 168 kts 277°
2026-05-08 02:57 -35.68056 145.44570 8041 ft 168 kts 277°
2026-05-08 02:57 -35.67704 145.43203 8041 ft 167 kts 277°
2026-05-08 02:57 -35.67351 145.41835 8040 ft 167 kts 277°
2026-05-08 02:57 -35.66999 145.40472 8041 ft 167 kts 277°
2026-05-08 02:58 -35.66647 145.39111 8043 ft 167 kts 277°
2026-05-08 02:58 -35.66294 145.37745 8041 ft 167 kts 277°
2026-05-08 02:58 -35.65942 145.36381 8047 ft 167 kts 277°
2026-05-08 02:58 -35.65593 145.35034 8046 ft 167 kts 277°
2026-05-08 02:59 -35.65241 145.33670 8043 ft 167 kts 277°
2026-05-08 02:59 -35.64887 145.32306 8043 ft 167 kts 277°
2026-05-08 02:59 -35.64535 145.30945 8043 ft 167 kts 277°
2026-05-08 02:59 -35.64188 145.29606 8043 ft 167 kts 277°
2026-05-08 03:00 -35.63835 145.28245 8043 ft 167 kts 277°
2026-05-08 03:00 -35.63482 145.26885 8043 ft 167 kts 277°
2026-05-08 03:00 -35.63129 145.25528 8050 ft 167 kts 277°
2026-05-08 03:00 -35.62776 145.24167 8047 ft 168 kts 277°
2026-05-08 03:01 -35.62421 145.22801 8053 ft 168 kts 278°
2026-05-08 03:01 -35.62063 145.21424 8047 ft 168 kts 278°
2026-05-08 03:01 -35.61707 145.20056 8047 ft 168 kts 278°
2026-05-08 03:01 -35.61351 145.18690 8047 ft 168 kts 278°
2026-05-08 03:02 -35.60996 145.17326 8052 ft 168 kts 278°
2026-05-08 03:02 -35.60640 145.15961 8046 ft 167 kts 278°
2026-05-08 03:02 -35.60289 145.14616 8051 ft 167 kts 277°
2026-05-08 03:02 -35.59933 145.13248 8049 ft 167 kts 277°
2026-05-08 03:03 -35.59576 145.11883 8056 ft 167 kts 277°
2026-05-08 03:03 -35.59220 145.10521 8061 ft 168 kts 277°
2026-05-08 03:03 -35.58864 145.09151 8055 ft 168 kts 277°
2026-05-08 03:03 -35.58510 145.07800 8062 ft 168 kts 277°
2026-05-08 03:04 -35.58151 145.06427 8049 ft 169 kts 277°
2026-05-08 03:04 -35.57791 145.05051 8057 ft 169 kts 277°
2026-05-08 03:04 -35.57431 145.03677 8057 ft 169 kts 277°
2026-05-08 03:04 -35.57071 145.02302 8057 ft 169 kts 277°
2026-05-08 03:05 -35.56712 145.00930 8062 ft 168 kts 277°
2026-05-08 03:05 -35.56358 144.99558 8056 ft 169 kts 278°
2026-05-08 03:05 -35.55998 144.98201 8061 ft 169 kts 278°
2026-05-08 03:05 -35.55635 144.96825 8055 ft 170 kts 278°
2026-05-08 03:06 -35.55272 144.95442 8058 ft 169 kts 278°
2026-05-08 03:06 -35.55055 144.94051 8058 ft 164 kts 268°
2026-05-08 03:06 -35.54905 144.92657 8058 ft 165 kts 269°
2026-05-08 03:06 -35.54742 144.91261 8064 ft 165 kts 269°
2026-05-08 03:07 -35.54576 144.89869 8056 ft 165 kts 269°
2026-05-08 03:07 -35.54409 144.88473 8068 ft 165 kts 268°
2026-05-08 03:07 -35.54244 144.87072 8069 ft 166 kts 268°
2026-05-08 03:07 -35.54079 144.85692 8072 ft 165 kts 268°
2026-05-08 03:08 -35.53914 144.84297 8075 ft 165 kts 269°
2026-05-08 03:08 -35.53746 144.82896 8076 ft 165 kts 269°
2026-05-08 03:08 -35.53580 144.81504 8074 ft 164 kts 269°
2026-05-08 03:08 -35.53414 144.80114 8074 ft 164 kts 268°
2026-05-08 03:09 -35.53251 144.78746 8071 ft 164 kts 268°
2026-05-08 03:09 -35.53086 144.77354 8071 ft 164 kts 268°
2026-05-08 03:09 -35.52919 144.75964 8071 ft 164 kts 268°
2026-05-08 03:09 -35.52752 144.74572 8070 ft 165 kts 269°
2026-05-08 03:10 -35.52585 144.73180 8071 ft 165 kts 269°
2026-05-08 03:10 -35.52419 144.71795 8066 ft 166 kts 269°
2026-05-08 03:10 -35.52251 144.70398 8066 ft 166 kts 269°
2026-05-08 03:10 -35.52082 144.68988 8063 ft 166 kts 269°
2026-05-08 03:11 -35.51913 144.67589 8065 ft 166 kts 269°
2026-05-08 03:11 -35.51744 144.66189 8065 ft 165 kts 269°
2026-05-08 03:11 -35.51576 144.64789 8075 ft 165 kts 269°
2026-05-08 03:11 -35.51407 144.63391 8071 ft 165 kts 269°
2026-05-08 03:12 -35.51240 144.62009 8068 ft 165 kts 269°
2026-05-08 03:12 -35.51071 144.60612 8072 ft 165 kts 269°
2026-05-08 03:12 -35.50902 144.59214 8068 ft 165 kts 269°
2026-05-08 03:12 -35.50733 144.57817 8069 ft 166 kts 269°
2026-05-08 03:13 -35.50562 144.56416 8071 ft 166 kts 269°
2026-05-08 03:13 -35.50392 144.55011 8071 ft 166 kts 269°
2026-05-08 03:13 -35.50223 144.53628 8077 ft 166 kts 269°
2026-05-08 03:13 -35.50054 144.52232 8073 ft 165 kts 269°
2026-05-08 03:14 -35.49884 144.50836 8071 ft 165 kts 269°
2026-05-08 03:14 -35.49713 144.49440 8070 ft 164 kts 269°
2026-05-08 03:14 -35.49544 144.48053 8074 ft 164 kts 269°
2026-05-08 03:14 -35.49374 144.46662 8075 ft 165 kts 269°
2026-05-08 03:15 -35.49204 144.45266 8073 ft 165 kts 269°
2026-05-08 03:15 -35.49035 144.43887 8079 ft 166 kts 269°
2026-05-08 03:15 -35.48863 144.42488 8080 ft 166 kts 269°
2026-05-08 03:15 -35.48691 144.41083 8080 ft 166 kts 269°
2026-05-08 03:16 -35.48519 144.39681 8079 ft 166 kts 269°
2026-05-08 03:16 -35.48347 144.38278 8079 ft 166 kts 269°
2026-05-08 03:16 -35.48174 144.36877 8079 ft 166 kts 269°
2026-05-08 03:16 -35.48002 144.35478 8078 ft 166 kts 269°
2026-05-08 03:17 -35.47888 144.34555 8083 ft 165 kts 269°
2026-05-08 03:17 -35.47660 144.32707 8083 ft 165 kts 269°
2026-05-08 03:17 -35.47544 144.31766 8077 ft 165 kts 269°
2026-05-08 03:17 -35.47316 144.29919 8077 ft 165 kts 269°
2026-05-08 03:18 -35.47202 144.28995 8079 ft 165 kts 269°
2026-05-08 03:18 -35.47028 144.27599 8079 ft 166 kts 269°
2026-05-08 03:18 -35.46856 144.26199 8079 ft 166 kts 269°
2026-05-08 03:18 -35.46681 144.24802 8080 ft 166 kts 269°
2026-05-08 03:19 -35.46508 144.23404 8082 ft 166 kts 269°
2026-05-08 03:19 -35.46334 144.22003 8084 ft 166 kts 269°
2026-05-08 03:19 -35.46162 144.20618 8083 ft 167 kts 269°
2026-05-08 03:19 -35.45987 144.19210 8083 ft 167 kts 269°
2026-05-08 03:20 -35.45811 144.17807 8084 ft 166 kts 269°
2026-05-08 03:20 -35.45636 144.16402 8084 ft 166 kts 269°
2026-05-08 03:20 -35.45461 144.14997 8084 ft 166 kts 269°
2026-05-08 03:20 -35.45285 144.13597 8087 ft 166 kts 269°
2026-05-08 03:21 -35.45110 144.12194 8088 ft 166 kts 269°
2026-05-08 03:21 -35.44934 144.10789 8089 ft 167 kts 269°
2026-05-08 03:21 -35.44760 144.09400 8089 ft 167 kts 269°
2026-05-08 03:21 -35.44583 144.07992 8090 ft 167 kts 269°
2026-05-08 03:22 -35.44406 144.06584 8089 ft 167 kts 269°
2026-05-08 03:22 -35.44229 144.05178 8089 ft 167 kts 269°
2026-05-08 03:22 -35.44053 144.03772 8092 ft 167 kts 269°
2026-05-08 03:22 -35.43875 144.02361 8092 ft 167 kts 269°
2026-05-08 03:23 -35.43700 144.00970 8088 ft 167 kts 269°
2026-05-08 03:23 -35.43519 143.99548 8087 ft 166 kts 269°
2026-05-08 03:23 -35.43345 143.98162 8086 ft 166 kts 269°
2026-05-08 03:23 -35.43167 143.96761 8087 ft 166 kts 269°
2026-05-08 03:24 -35.42989 143.95355 8091 ft 166 kts 269°
2026-05-08 03:24 -35.42812 143.93955 8097 ft 166 kts 269°
2026-05-08 03:24 -35.42631 143.92552 8098 ft 166 kts 268°
2026-05-08 03:24 -35.42456 143.91148 8098 ft 167 kts 268°
2026-05-08 03:25 -35.42277 143.89736 8103 ft 167 kts 269°
2026-05-08 03:25 -35.42098 143.88328 8102 ft 167 kts 269°
2026-05-08 03:25 -35.41920 143.86933 8102 ft 167 kts 269°
2026-05-08 03:25 -35.41740 143.85523 8101 ft 167 kts 269°
2026-05-08 03:26 -35.41561 143.84115 8103 ft 167 kts 269°
2026-05-08 03:26 -35.41381 143.82709 8105 ft 167 kts 269°
2026-05-08 03:26 -35.41201 143.81297 8103 ft 167 kts 269°
2026-05-08 03:26 -35.41022 143.79901 8104 ft 167 kts 269°
2026-05-08 03:27 -35.40841 143.78494 8098 ft 167 kts 269°
2026-05-08 03:27 -35.40661 143.77087 8098 ft 167 kts 269°
2026-05-08 03:27 -35.40481 143.75683 8097 ft 167 kts 269°
2026-05-08 03:27 -35.40300 143.74276 8093 ft 167 kts 269°
2026-05-08 03:28 -35.40119 143.72866 8094 ft 167 kts 269°
2026-05-08 03:28 -35.39938 143.71460 8095 ft 167 kts 269°
2026-05-08 03:28 -35.39759 143.70068 8096 ft 167 kts 269°
2026-05-08 03:28 -35.39577 143.68636 7993 ft 173 kts 269°
2026-05-08 03:29 -35.39386 143.67173 7952 ft 172 kts 269°
2026-05-08 03:29 -35.39199 143.65731 7937 ft 170 kts 269°
2026-05-08 03:29 -35.39018 143.64326 7713 ft 161 kts 268°
2026-05-08 03:29 -35.38848 143.62998 7488 ft 156 kts 268°
2026-05-08 03:30 -35.38526 143.60503 7031 ft 144 kts 267°
2026-05-08 03:30 -35.38191 143.57889 6008 ft 149 kts 268°
2026-05-08 03:31 -35.37865 143.55422 5000 ft 140 kts 269°
2026-05-08 03:31 -35.37569 143.53154 3962 ft 131 kts 268°
2026-05-08 03:32 -35.37296 143.51045 2972 ft 127 kts 270°